sensor_id;sensor_type;location;lat;lon;timestamp;temperature;humidity
10980;DHT22;5543;51.734;8.744;2023-03-23T00:00:08;12.60;99.90
10980;DHT22;5543;51.734;8.744;2023-03-23T00:02:35;12.60;99.90
10980;DHT22;5543;51.734;8.744;2023-03-23T00:05:05;12.60;99.90
10980;DHT22;5543;51.734;8.744;2023-03-23T00:07:33;12.60;99.90
10980;DHT22;5543;51.734;8.744;2023-03-23T00:10:01;12.60;99.90
10980;DHT22;5543;51.734;8.744;2023-03-23T00:12:30;12.60;99.90
10980;DHT22;5543;51.734;8.744;2023-03-23T00:15:01;12.60;99.90
10980;DHT22;5543;51.734;8.744;2023-03-23T00:17:29;12.60;99.90
10980;DHT22;5543;51.734;8.744;2023-03-23T00:19:58;12.70;99.90
10980;DHT22;5543;51.734;8.744;2023-03-23T00:22:27;12.80;99.90
10980;DHT22;5543;51.734;8.744;2023-03-23T00:24:54;12.60;99.90
10980;DHT22;5543;51.734;8.744;2023-03-23T00:27:22;12.60;99.90
10980;DHT22;5543;51.734;8.744;2023-03-23T00:29:49;12.50;99.90
10980;DHT22;5543;51.734;8.744;2023-03-23T00:32:20;12.70;99.90
10980;DHT22;5543;51.734;8.744;2023-03-23T00:34:54;12.60;99.90
10980;DHT22;5543;51.734;8.744;2023-03-23T00:37:21;12.60;99.90
10980;DHT22;5543;51.734;8.744;2023-03-23T00:39:50;12.60;99.90
10980;DHT22;5543;51.734;8.744;2023-03-23T00:42:18;12.60;99.90
10980;DHT22;5543;51.734;8.744;2023-03-23T00:44:45;12.60;99.90
10980;DHT22;5543;51.734;8.744;2023-03-23T00:47:12;12.60;99.90
10980;DHT22;5543;51.734;8.744;2023-03-23T00:49:41;12.70;99.90
10980;DHT22;5543;51.734;8.744;2023-03-23T00:52:09;12.60;99.90
10980;DHT22;5543;51.734;8.744;2023-03-23T00:54:36;12.50;99.90
10980;DHT22;5543;51.734;8.744;2023-03-23T00:57:03;12.50;99.90
10980;DHT22;5543;51.734;8.744;2023-03-23T00:59:30;12.50;99.90
10980;DHT22;5543;51.734;8.744;2023-03-23T01:01:57;12.50;99.90
10980;DHT22;5543;51.734;8.744;2023-03-23T01:04:25;12.50;99.90
10980;DHT22;5543;51.734;8.744;2023-03-23T01:06:55;12.60;99.90
10980;DHT22;5543;51.734;8.744;2023-03-23T01:09:22;12.60;99.90
10980;DHT22;5543;51.734;8.744;2023-03-23T01:11:50;12.50;99.90
10980;DHT22;5543;51.734;8.744;2023-03-23T01:14:19;12.50;99.90
10980;DHT22;5543;51.734;8.744;2023-03-23T01:16:46;12.50;99.90
10980;DHT22;5543;51.734;8.744;2023-03-23T01:19:13;12.50;99.90
10980;DHT22;5543;51.734;8.744;2023-03-23T01:21:41;12.50;99.90
10980;DHT22;5543;51.734;8.744;2023-03-23T01:24:09;12.40;99.90
10980;DHT22;5543;51.734;8.744;2023-03-23T01:26:36;12.40;99.90
10980;DHT22;5543;51.734;8.744;2023-03-23T01:29:03;12.30;99.90
10980;DHT22;5543;51.734;8.744;2023-03-23T01:31:30;12.30;99.90
10980;DHT22;5543;51.734;8.744;2023-03-23T01:33:57;12.30;99.90
10980;DHT22;5543;51.734;8.744;2023-03-23T01:36:26;12.30;99.90
10980;DHT22;5543;51.734;8.744;2023-03-23T01:38:54;12.30;99.90
10980;DHT22;5543;51.734;8.744;2023-03-23T01:41:24;12.30;99.90
10980;DHT22;5543;51.734;8.744;2023-03-23T01:44:00;12.20;99.90
10980;DHT22;5543;51.734;8.744;2023-03-23T01:46:29;12.20;99.90
10980;DHT22;5543;51.734;8.744;2023-03-23T01:48:58;12.20;99.90
10980;DHT22;5543;51.734;8.744;2023-03-23T01:51:31;12.20;99.90
10980;DHT22;5543;51.734;8.744;2023-03-23T01:54:02;12.20;99.90
10980;DHT22;5543;51.734;8.744;2023-03-23T01:56:36;12.20;99.90
10980;DHT22;5543;51.734;8.744;2023-03-23T01:59:07;12.20;99.90
10980;DHT22;5543;51.734;8.744;2023-03-23T02:01:35;12.20;99.90
10980;DHT22;5543;51.734;8.744;2023-03-23T02:04:04;12.20;99.90
10980;DHT22;5543;51.734;8.744;2023-03-23T02:06:31;12.30;99.90
10980;DHT22;5543;51.734;8.744;2023-03-23T02:08:59;12.30;99.90
10980;DHT22;5543;51.734;8.744;2023-03-23T02:11:26;12.30;99.90
10980;DHT22;5543;51.734;8.744;2023-03-23T02:13:54;12.30;99.90
10980;DHT22;5543;51.734;8.744;2023-03-23T02:16:31;12.10;99.90
10980;DHT22;5543;51.734;8.744;2023-03-23T02:19:12;12.30;99.90
10980;DHT22;5543;51.734;8.744;2023-03-23T02:22:09;12.30;99.90
10980;DHT22;5543;51.734;8.744;2023-03-23T02:25:13;12.20;99.90
10980;DHT22;5543;51.734;8.744;2023-03-23T02:28:05;12.20;99.90
10980;DHT22;5543;51.734;8.744;2023-03-23T02:30:50;12.10;99.90
10980;DHT22;5543;51.734;8.744;2023-03-23T02:33:48;12.10;99.90
10980;DHT22;5543;51.734;8.744;2023-03-23T02:36:21;12.00;99.90
10980;DHT22;5543;51.734;8.744;2023-03-23T02:38:57;12.00;99.90
10980;DHT22;5543;51.734;8.744;2023-03-23T02:41:30;12.00;99.90
10980;DHT22;5543;51.734;8.744;2023-03-23T02:43:58;12.00;99.90
10980;DHT22;5543;51.734;8.744;2023-03-23T02:46:28;11.90;99.90
10980;DHT22;5543;51.734;8.744;2023-03-23T02:48:57;12.00;99.90
10980;DHT22;5543;51.734;8.744;2023-03-23T02:51:26;11.90;99.90
10980;DHT22;5543;51.734;8.744;2023-03-23T02:53:55;11.80;99.90
10980;DHT22;5543;51.734;8.744;2023-03-23T02:56:25;11.70;99.90
10980;DHT22;5543;51.734;8.744;2023-03-23T02:58:53;11.70;99.90
10980;DHT22;5543;51.734;8.744;2023-03-23T03:01:48;11.60;99.90
10980;DHT22;5543;51.734;8.744;2023-03-23T03:04:19;11.60;99.90
10980;DHT22;5543;51.734;8.744;2023-03-23T03:07:01;11.60;99.90
10980;DHT22;5543;51.734;8.744;2023-03-23T03:09:38;11.50;99.90
10980;DHT22;5543;51.734;8.744;2023-03-23T03:12:12;11.40;99.90
10980;DHT22;5543;51.734;8.744;2023-03-23T03:14:44;11.30;99.90
10980;DHT22;5543;51.734;8.744;2023-03-23T03:17:19;11.20;99.90
10980;DHT22;5543;51.734;8.744;2023-03-23T03:19:49;11.10;99.90
10980;DHT22;5543;51.734;8.744;2023-03-23T03:22:17;11.00;99.90
10980;DHT22;5543;51.734;8.744;2023-03-23T03:24:47;11.20;99.90
10980;DHT22;5543;51.734;8.744;2023-03-23T03:27:17;11.20;99.90
10980;DHT22;5543;51.734;8.744;2023-03-23T03:29:47;11.10;99.90
10980;DHT22;5543;51.734;8.744;2023-03-23T03:32:19;11.10;99.90
10980;DHT22;5543;51.734;8.744;2023-03-23T03:34:49;11.10;99.90
10980;DHT22;5543;51.734;8.744;2023-03-23T03:37:18;11.10;99.90
10980;DHT22;5543;51.734;8.744;2023-03-23T03:39:46;11.20;99.90
10980;DHT22;5543;51.734;8.744;2023-03-23T03:42:13;11.10;99.90
10980;DHT22;5543;51.734;8.744;2023-03-23T03:44:40;11.10;99.90
10980;DHT22;5543;51.734;8.744;2023-03-23T03:47:07;11.10;99.90
10980;DHT22;5543;51.734;8.744;2023-03-23T03:49:34;11.10;99.90
10980;DHT22;5543;51.734;8.744;2023-03-23T03:52:03;11.20;99.90
10980;DHT22;5543;51.734;8.744;2023-03-23T03:54:30;11.10;99.90
10980;DHT22;5543;51.734;8.744;2023-03-23T03:56:57;11.10;99.90
10980;DHT22;5543;51.734;8.744;2023-03-23T03:59:25;11.20;99.90
10980;DHT22;5543;51.734;8.744;2023-03-23T04:01:52;11.20;99.90
10980;DHT22;5543;51.734;8.744;2023-03-23T04:04:20;11.30;99.90
10980;DHT22;5543;51.734;8.744;2023-03-23T04:06:48;11.30;99.90
10980;DHT22;5543;51.734;8.744;2023-03-23T04:09:16;11.30;99.90
10980;DHT22;5543;51.734;8.744;2023-03-23T04:11:44;11.30;99.90
10980;DHT22;5543;51.734;8.744;2023-03-23T04:14:11;11.40;99.90
10980;DHT22;5543;51.734;8.744;2023-03-23T04:16:39;11.30;99.90
10980;DHT22;5543;51.734;8.744;2023-03-23T04:19:07;11.40;99.90
10980;DHT22;5543;51.734;8.744;2023-03-23T04:21:34;11.40;99.90
10980;DHT22;5543;51.734;8.744;2023-03-23T04:24:01;11.40;99.90
10980;DHT22;5543;51.734;8.744;2023-03-23T04:26:30;11.40;99.90
10980;DHT22;5543;51.734;8.744;2023-03-23T04:28:58;11.30;99.90
10980;DHT22;5543;51.734;8.744;2023-03-23T04:31:25;11.30;99.90
10980;DHT22;5543;51.734;8.744;2023-03-23T04:33:52;11.40;99.90
10980;DHT22;5543;51.734;8.744;2023-03-23T04:36:19;11.40;99.90
10980;DHT22;5543;51.734;8.744;2023-03-23T04:38:48;11.30;99.90
10980;DHT22;5543;51.734;8.744;2023-03-23T04:41:20;11.20;99.90
10980;DHT22;5543;51.734;8.744;2023-03-23T04:43:49;11.20;99.90
10980;DHT22;5543;51.734;8.744;2023-03-23T04:46:18;11.30;99.90
10980;DHT22;5543;51.734;8.744;2023-03-23T04:48:47;11.30;99.90
10980;DHT22;5543;51.734;8.744;2023-03-23T04:51:14;11.30;99.90
10980;DHT22;5543;51.734;8.744;2023-03-23T04:53:41;11.30;99.90
10980;DHT22;5543;51.734;8.744;2023-03-23T04:56:08;11.20;99.90
10980;DHT22;5543;51.734;8.744;2023-03-23T04:58:35;11.40;99.90
10980;DHT22;5543;51.734;8.744;2023-03-23T05:01:03;11.40;99.90
10980;DHT22;5543;51.734;8.744;2023-03-23T05:03:30;11.40;99.90
10980;DHT22;5543;51.734;8.744;2023-03-23T05:05:57;11.60;99.90
10980;DHT22;5543;51.734;8.744;2023-03-23T05:08:27;11.40;99.90
10980;DHT22;5543;51.734;8.744;2023-03-23T05:10:56;11.40;99.90
10980;DHT22;5543;51.734;8.744;2023-03-23T05:13:23;11.40;99.90
10980;DHT22;5543;51.734;8.744;2023-03-23T05:15:50;11.40;99.90
10980;DHT22;5543;51.734;8.744;2023-03-23T05:18:19;11.30;99.90
10980;DHT22;5543;51.734;8.744;2023-03-23T05:20:47;11.40;99.90
10980;DHT22;5543;51.734;8.744;2023-03-23T05:23:15;11.40;99.90
10980;DHT22;5543;51.734;8.744;2023-03-23T05:25:42;11.40;99.90
10980;DHT22;5543;51.734;8.744;2023-03-23T05:28:09;11.30;99.90
10980;DHT22;5543;51.734;8.744;2023-03-23T05:30:38;11.40;99.90
10980;DHT22;5543;51.734;8.744;2023-03-23T05:33:06;11.40;99.90
10980;DHT22;5543;51.734;8.744;2023-03-23T05:35:34;11.40;99.90
10980;DHT22;5543;51.734;8.744;2023-03-23T05:38:02;11.40;99.90
10980;DHT22;5543;51.734;8.744;2023-03-23T05:40:29;11.60;99.90
10980;DHT22;5543;51.734;8.744;2023-03-23T05:42:56;11.50;99.90
10980;DHT22;5543;51.734;8.744;2023-03-23T05:45:24;11.60;99.90
10980;DHT22;5543;51.734;8.744;2023-03-23T05:47:52;11.60;99.90
10980;DHT22;5543;51.734;8.744;2023-03-23T05:50:19;11.60;99.90
10980;DHT22;5543;51.734;8.744;2023-03-23T05:52:48;11.50;99.90
10980;DHT22;5543;51.734;8.744;2023-03-23T05:55:16;11.70;99.90
10980;DHT22;5543;51.734;8.744;2023-03-23T05:57:43;11.70;99.90
10980;DHT22;5543;51.734;8.744;2023-03-23T06:00:11;11.60;99.90
10980;DHT22;5543;51.734;8.744;2023-03-23T06:02:46;11.60;99.90
10980;DHT22;5543;51.734;8.744;2023-03-23T06:05:14;11.60;99.90
10980;DHT22;5543;51.734;8.744;2023-03-23T06:07:41;11.70;99.90
10980;DHT22;5543;51.734;8.744;2023-03-23T06:10:10;11.70;99.90
10980;DHT22;5543;51.734;8.744;2023-03-23T06:12:37;11.70;99.90
10980;DHT22;5543;51.734;8.744;2023-03-23T06:15:06;11.70;99.90
10980;DHT22;5543;51.734;8.744;2023-03-23T06:17:33;11.80;99.90
10980;DHT22;5543;51.734;8.744;2023-03-23T06:20:02;11.80;99.90
10980;DHT22;5543;51.734;8.744;2023-03-23T06:22:35;11.90;99.90
10980;DHT22;5543;51.734;8.744;2023-03-23T06:25:04;12.00;99.90
10980;DHT22;5543;51.734;8.744;2023-03-23T06:27:33;12.10;99.90
10980;DHT22;5543;51.734;8.744;2023-03-23T06:30:01;12.00;99.90
10980;DHT22;5543;51.734;8.744;2023-03-23T06:32:30;12.20;99.90
10980;DHT22;5543;51.734;8.744;2023-03-23T06:34:58;12.20;99.90
10980;DHT22;5543;51.734;8.744;2023-03-23T06:37:25;12.20;99.90
10980;DHT22;5543;51.734;8.744;2023-03-23T06:39:52;12.20;99.90
10980;DHT22;5543;51.734;8.744;2023-03-23T06:42:21;12.20;99.90
10980;DHT22;5543;51.734;8.744;2023-03-23T06:44:51;12.30;99.90
10980;DHT22;5543;51.734;8.744;2023-03-23T06:47:18;12.30;99.90
10980;DHT22;5543;51.734;8.744;2023-03-23T06:49:45;12.30;99.90
10980;DHT22;5543;51.734;8.744;2023-03-23T06:52:12;12.30;99.90
10980;DHT22;5543;51.734;8.744;2023-03-23T06:54:39;12.30;99.90
10980;DHT22;5543;51.734;8.744;2023-03-23T06:57:07;12.30;99.90
10980;DHT22;5543;51.734;8.744;2023-03-23T06:59:34;12.30;99.90
10980;DHT22;5543;51.734;8.744;2023-03-23T07:02:02;12.40;99.90
10980;DHT22;5543;51.734;8.744;2023-03-23T07:04:29;12.40;99.90
10980;DHT22;5543;51.734;8.744;2023-03-23T07:06:57;12.50;99.90
10980;DHT22;5543;51.734;8.744;2023-03-23T07:09:24;12.60;99.90
10980;DHT22;5543;51.734;8.744;2023-03-23T07:11:51;12.70;99.90
10980;DHT22;5543;51.734;8.744;2023-03-23T07:14:18;12.80;99.90
10980;DHT22;5543;51.734;8.744;2023-03-23T07:16:47;12.90;99.90
10980;DHT22;5543;51.734;8.744;2023-03-23T07:19:16;12.90;99.90
10980;DHT22;5543;51.734;8.744;2023-03-23T07:21:43;13.00;99.90
10980;DHT22;5543;51.734;8.744;2023-03-23T07:24:10;13.00;99.90
10980;DHT22;5543;51.734;8.744;2023-03-23T07:26:39;13.10;99.90
10980;DHT22;5543;51.734;8.744;2023-03-23T07:29:07;13.20;99.90
10980;DHT22;5543;51.734;8.744;2023-03-23T07:31:34;13.30;99.90
10980;DHT22;5543;51.734;8.744;2023-03-23T07:34:02;13.30;99.90
10980;DHT22;5543;51.734;8.744;2023-03-23T07:36:30;13.40;99.90
10980;DHT22;5543;51.734;8.744;2023-03-23T07:38:58;13.50;99.90
10980;DHT22;5543;51.734;8.744;2023-03-23T07:41:25;13.50;99.90
10980;DHT22;5543;51.734;8.744;2023-03-23T07:43:52;13.60;99.90
10980;DHT22;5543;51.734;8.744;2023-03-23T07:46:19;13.70;99.90
10980;DHT22;5543;51.734;8.744;2023-03-23T07:48:46;13.80;99.90
10980;DHT22;5543;51.734;8.744;2023-03-23T07:51:13;14.00;99.90
10980;DHT22;5543;51.734;8.744;2023-03-23T07:53:43;14.20;99.90
10980;DHT22;5543;51.734;8.744;2023-03-23T07:56:13;14.20;99.90
10980;DHT22;5543;51.734;8.744;2023-03-23T07:58:44;14.30;99.90
10980;DHT22;5543;51.734;8.744;2023-03-23T08:01:11;14.20;99.90
10980;DHT22;5543;51.734;8.744;2023-03-23T08:03:39;14.10;99.90
10980;DHT22;5543;51.734;8.744;2023-03-23T08:06:08;14.00;99.90
10980;DHT22;5543;51.734;8.744;2023-03-23T08:08:36;14.10;99.90
10980;DHT22;5543;51.734;8.744;2023-03-23T08:11:05;14.10;99.90
10980;DHT22;5543;51.734;8.744;2023-03-23T08:13:32;14.10;99.90
10980;DHT22;5543;51.734;8.744;2023-03-23T08:15:59;14.20;99.90
10980;DHT22;5543;51.734;8.744;2023-03-23T08:18:29;14.30;99.90
10980;DHT22;5543;51.734;8.744;2023-03-23T08:20:59;14.40;99.90
10980;DHT22;5543;51.734;8.744;2023-03-23T08:23:26;14.40;99.90
10980;DHT22;5543;51.734;8.744;2023-03-23T08:25:53;14.50;99.90
10980;DHT22;5543;51.734;8.744;2023-03-23T08:28:21;14.80;99.90
10980;DHT22;5543;51.734;8.744;2023-03-23T08:30:49;14.60;99.90
10980;DHT22;5543;51.734;8.744;2023-03-23T08:33:17;14.60;99.90
10980;DHT22;5543;51.734;8.744;2023-03-23T08:35:44;14.70;99.90
10980;DHT22;5543;51.734;8.744;2023-03-23T08:38:11;14.80;99.90
10980;DHT22;5543;51.734;8.744;2023-03-23T08:40:38;14.80;99.90
10980;DHT22;5543;51.734;8.744;2023-03-23T08:43:06;14.80;99.90
10980;DHT22;5543;51.734;8.744;2023-03-23T08:45:34;14.40;99.90
10980;DHT22;5543;51.734;8.744;2023-03-23T08:48:02;14.30;99.90
10980;DHT22;5543;51.734;8.744;2023-03-23T08:50:29;14.60;99.90
10980;DHT22;5543;51.734;8.744;2023-03-23T08:52:58;14.60;99.90
10980;DHT22;5543;51.734;8.744;2023-03-23T08:55:27;14.80;99.90
10980;DHT22;5543;51.734;8.744;2023-03-23T08:57:55;14.90;99.90
10980;DHT22;5543;51.734;8.744;2023-03-23T09:00:23;15.00;99.90
10980;DHT22;5543;51.734;8.744;2023-03-23T09:02:54;15.00;99.90
10980;DHT22;5543;51.734;8.744;2023-03-23T09:05:24;15.10;99.90
10980;DHT22;5543;51.734;8.744;2023-03-23T09:07:52;15.10;99.90
10980;DHT22;5543;51.734;8.744;2023-03-23T09:10:20;15.20;99.90
10980;DHT22;5543;51.734;8.744;2023-03-23T09:12:48;15.40;99.90
10980;DHT22;5543;51.734;8.744;2023-03-23T09:15:16;15.60;99.90
10980;DHT22;5543;51.734;8.744;2023-03-23T09:17:45;15.40;99.70
10980;DHT22;5543;51.734;8.744;2023-03-23T09:20:15;15.60;99.90
10980;DHT22;5543;51.734;8.744;2023-03-23T09:22:46;15.60;99.90
10980;DHT22;5543;51.734;8.744;2023-03-23T09:25:15;15.80;99.90
10980;DHT22;5543;51.734;8.744;2023-03-23T09:27:45;16.00;99.90
10980;DHT22;5543;51.734;8.744;2023-03-23T09:30:15;16.10;99.90
10980;DHT22;5543;51.734;8.744;2023-03-23T09:32:44;15.90;99.20
10980;DHT22;5543;51.734;8.744;2023-03-23T09:35:18;15.80;99.30
10980;DHT22;5543;51.734;8.744;2023-03-23T09:37:48;15.50;99.20
10980;DHT22;5543;51.734;8.744;2023-03-23T09:40:18;15.30;99.90
10980;DHT22;5543;51.734;8.744;2023-03-23T09:42:56;15.10;99.90
10980;DHT22;5543;51.734;8.744;2023-03-23T09:45:28;15.00;99.90
10980;DHT22;5543;51.734;8.744;2023-03-23T09:48:10;15.00;99.90
10980;DHT22;5543;51.734;8.744;2023-03-23T09:50:42;15.20;99.90
10980;DHT22;5543;51.734;8.744;2023-03-23T09:53:14;15.10;99.90
10980;DHT22;5543;51.734;8.744;2023-03-23T09:55:42;15.10;99.50
10980;DHT22;5543;51.734;8.744;2023-03-23T09:58:16;15.10;99.80
10980;DHT22;5543;51.734;8.744;2023-03-23T10:00:47;15.20;99.40
10980;DHT22;5543;51.734;8.744;2023-03-23T10:03:18;15.50;99.30
10980;DHT22;5543;51.734;8.744;2023-03-23T10:05:49;15.80;99.20
10980;DHT22;5543;51.734;8.744;2023-03-23T10:08:18;16.10;98.80
10980;DHT22;5543;51.734;8.744;2023-03-23T10:10:53;16.40;99.20
10980;DHT22;5543;51.734;8.744;2023-03-23T10:13:34;16.60;99.00
10980;DHT22;5543;51.734;8.744;2023-03-23T10:16:07;16.70;97.60
10980;DHT22;5543;51.734;8.744;2023-03-23T10:18:40;16.50;98.00
10980;DHT22;5543;51.734;8.744;2023-03-23T10:21:13;16.30;97.80
10980;DHT22;5543;51.734;8.744;2023-03-23T10:23:49;16.30;98.20
10980;DHT22;5543;51.734;8.744;2023-03-23T10:26:33;16.20;98.20
10980;DHT22;5543;51.734;8.744;2023-03-23T10:29:11;15.90;97.90
10980;DHT22;5543;51.734;8.744;2023-03-23T10:31:42;15.80;98.50
10980;DHT22;5543;51.734;8.744;2023-03-23T10:34:13;16.00;98.50
10980;DHT22;5543;51.734;8.744;2023-03-23T10:36:55;16.30;97.80
10980;DHT22;5543;51.734;8.744;2023-03-23T10:39:26;16.50;98.30
10980;DHT22;5543;51.734;8.744;2023-03-23T10:41:54;16.70;97.50
10980;DHT22;5543;51.734;8.744;2023-03-23T10:44:24;16.80;97.90
10980;DHT22;5543;51.734;8.744;2023-03-23T10:46:58;17.00;97.80
10980;DHT22;5543;51.734;8.744;2023-03-23T10:49:27;17.60;97.50
10980;DHT22;5543;51.734;8.744;2023-03-23T10:52:04;17.90;96.60
10980;DHT22;5543;51.734;8.744;2023-03-23T10:54:36;18.40;95.90
10980;DHT22;5543;51.734;8.744;2023-03-23T10:57:13;19.60;95.50
10980;DHT22;5543;51.734;8.744;2023-03-23T10:59:47;20.60;93.80
10980;DHT22;5543;51.734;8.744;2023-03-23T11:02:16;20.70;93.20
10980;DHT22;5543;51.734;8.744;2023-03-23T11:04:55;20.90;92.10
10980;DHT22;5543;51.734;8.744;2023-03-23T11:07:28;19.90;92.80
10980;DHT22;5543;51.734;8.744;2023-03-23T11:09:57;19.30;92.90
10980;DHT22;5543;51.734;8.744;2023-03-23T11:12:33;18.50;93.30
10980;DHT22;5543;51.734;8.744;2023-03-23T11:15:16;18.10;93.90
10980;DHT22;5543;51.734;8.744;2023-03-23T11:17:55;17.70;94.20
10980;DHT22;5543;51.734;8.744;2023-03-23T11:20:24;17.60;94.70
10980;DHT22;5543;51.734;8.744;2023-03-23T11:22:54;17.60;94.50
10980;DHT22;5543;51.734;8.744;2023-03-23T11:25:21;17.50;94.80
10980;DHT22;5543;51.734;8.744;2023-03-23T11:27:49;17.10;95.60
10980;DHT22;5543;51.734;8.744;2023-03-23T11:30:24;17.10;95.50
10980;DHT22;5543;51.734;8.744;2023-03-23T11:32:53;16.60;96.00
10980;DHT22;5543;51.734;8.744;2023-03-23T11:35:23;16.50;95.80
10980;DHT22;5543;51.734;8.744;2023-03-23T11:37:55;16.40;96.10
10980;DHT22;5543;51.734;8.744;2023-03-23T11:40:23;16.30;96.00
10980;DHT22;5543;51.734;8.744;2023-03-23T11:42:58;16.20;95.90
10980;DHT22;5543;51.734;8.744;2023-03-23T11:45:32;16.10;96.60
10980;DHT22;5543;51.734;8.744;2023-03-23T11:48:20;15.80;97.70
10980;DHT22;5543;51.734;8.744;2023-03-23T11:50:51;15.60;97.10
10980;DHT22;5543;51.734;8.744;2023-03-23T11:53:35;15.40;96.90
10980;DHT22;5543;51.734;8.744;2023-03-23T11:56:11;15.20;97.00
10980;DHT22;5543;51.734;8.744;2023-03-23T11:58:39;15.10;97.80
10980;DHT22;5543;51.734;8.744;2023-03-23T12:01:13;15.10;97.80
10980;DHT22;5543;51.734;8.744;2023-03-23T12:04:20;15.00;98.80
10980;DHT22;5543;51.734;8.744;2023-03-23T12:06:54;14.80;99.70
10980;DHT22;5543;51.734;8.744;2023-03-23T12:09:36;14.50;99.90
10980;DHT22;5543;51.734;8.744;2023-03-23T12:12:14;14.20;99.90
10980;DHT22;5543;51.734;8.744;2023-03-23T12:14:49;13.90;99.90
10980;DHT22;5543;51.734;8.744;2023-03-23T12:17:27;13.70;99.90
10980;DHT22;5543;51.734;8.744;2023-03-23T12:20:12;13.40;99.90
10980;DHT22;5543;51.734;8.744;2023-03-23T12:22:51;13.30;99.90
10980;DHT22;5543;51.734;8.744;2023-03-23T12:25:43;13.00;99.90
10980;DHT22;5543;51.734;8.744;2023-03-23T12:28:19;12.90;99.90
10980;DHT22;5543;51.734;8.744;2023-03-23T12:30:54;12.90;99.90
10980;DHT22;5543;51.734;8.744;2023-03-23T12:33:33;12.80;99.90
10980;DHT22;5543;51.734;8.744;2023-03-23T12:36:09;12.80;99.90
10980;DHT22;5543;51.734;8.744;2023-03-23T12:38:58;12.80;99.90
10980;DHT22;5543;51.734;8.744;2023-03-23T12:41:31;12.80;99.90
10980;DHT22;5543;51.734;8.744;2023-03-23T12:44:03;12.90;99.90
10980;DHT22;5543;51.734;8.744;2023-03-23T12:46:56;12.90;99.90
10980;DHT22;5543;51.734;8.744;2023-03-23T12:49:31;13.00;99.90
10980;DHT22;5543;51.734;8.744;2023-03-23T12:52:06;13.20;99.90
10980;DHT22;5543;51.734;8.744;2023-03-23T12:54:41;13.30;99.90
10980;DHT22;5543;51.734;8.744;2023-03-23T12:57:19;13.30;99.90
10980;DHT22;5543;51.734;8.744;2023-03-23T12:59:53;13.20;99.90
10980;DHT22;5543;51.734;8.744;2023-03-23T13:02:24;13.10;99.90
10980;DHT22;5543;51.734;8.744;2023-03-23T13:04:58;13.10;99.90
10980;DHT22;5543;51.734;8.744;2023-03-23T13:07:30;13.00;99.90
10980;DHT22;5543;51.734;8.744;2023-03-23T13:10:03;13.00;99.90
10980;DHT22;5543;51.734;8.744;2023-03-23T13:12:36;12.90;99.90
10980;DHT22;5543;51.734;8.744;2023-03-23T13:15:15;12.90;99.90
10980;DHT22;5543;51.734;8.744;2023-03-23T13:17:51;12.80;99.90
10980;DHT22;5543;51.734;8.744;2023-03-23T13:20:45;12.80;99.90
10980;DHT22;5543;51.734;8.744;2023-03-23T13:23:17;12.70;99.90
10980;DHT22;5543;51.734;8.744;2023-03-23T13:25:50;12.70;99.90
10980;DHT22;5543;51.734;8.744;2023-03-23T13:28:21;12.60;99.90
10980;DHT22;5543;51.734;8.744;2023-03-23T13:31:00;12.50;99.90
10980;DHT22;5543;51.734;8.744;2023-03-23T13:33:33;12.50;99.90
10980;DHT22;5543;51.734;8.744;2023-03-23T13:36:07;12.50;99.90
10980;DHT22;5543;51.734;8.744;2023-03-23T13:38:35;12.40;99.90
10980;DHT22;5543;51.734;8.744;2023-03-23T13:41:11;12.30;99.90
10980;DHT22;5543;51.734;8.744;2023-03-23T13:43:41;12.20;99.90
10980;DHT22;5543;51.734;8.744;2023-03-23T13:46:13;12.20;99.90
10980;DHT22;5543;51.734;8.744;2023-03-23T13:48:51;12.20;99.90
10980;DHT22;5543;51.734;8.744;2023-03-23T13:51:35;12.30;99.90
10980;DHT22;5543;51.734;8.744;2023-03-23T13:54:23;12.20;99.90
10980;DHT22;5543;51.734;8.744;2023-03-23T13:56:54;12.20;99.90
10980;DHT22;5543;51.734;8.744;2023-03-23T13:59:33;12.20;99.90
10980;DHT22;5543;51.734;8.744;2023-03-23T14:02:36;12.50;99.90
10980;DHT22;5543;51.734;8.744;2023-03-23T14:05:28;12.40;99.90
10980;DHT22;5543;51.734;8.744;2023-03-23T14:07:58;12.30;99.90
10980;DHT22;5543;51.734;8.744;2023-03-23T14:10:33;12.50;99.90
10980;DHT22;5543;51.734;8.744;2023-03-23T14:13:01;12.40;99.90
10980;DHT22;5543;51.734;8.744;2023-03-23T14:15:40;12.20;99.90
10980;DHT22;5543;51.734;8.744;2023-03-23T14:18:14;12.30;99.90
10980;DHT22;5543;51.734;8.744;2023-03-23T14:20:42;12.30;99.90
10980;DHT22;5543;51.734;8.744;2023-03-23T14:23:15;12.30;99.90
10980;DHT22;5543;51.734;8.744;2023-03-23T14:25:42;12.30;99.90
10980;DHT22;5543;51.734;8.744;2023-03-23T14:28:18;12.50;99.90
10980;DHT22;5543;51.734;8.744;2023-03-23T14:30:52;12.70;99.90
10980;DHT22;5543;51.734;8.744;2023-03-23T14:33:20;12.80;99.90
10980;DHT22;5543;51.734;8.744;2023-03-23T14:35:48;12.80;99.90
10980;DHT22;5543;51.734;8.744;2023-03-23T14:38:18;12.60;99.90
10980;DHT22;5543;51.734;8.744;2023-03-23T14:40:46;12.60;99.90
10980;DHT22;5543;51.734;8.744;2023-03-23T14:43:16;12.40;99.90
10980;DHT22;5543;51.734;8.744;2023-03-23T14:45:45;12.20;99.90
10980;DHT22;5543;51.734;8.744;2023-03-23T14:48:16;12.10;99.90
10980;DHT22;5543;51.734;8.744;2023-03-23T14:50:49;12.20;99.90
10980;DHT22;5543;51.734;8.744;2023-03-23T14:53:22;12.20;99.90
10980;DHT22;5543;51.734;8.744;2023-03-23T14:55:53;12.30;99.90
10980;DHT22;5543;51.734;8.744;2023-03-23T14:58:23;12.60;99.90
10980;DHT22;5543;51.734;8.744;2023-03-23T15:00:56;12.70;99.90
10980;DHT22;5543;51.734;8.744;2023-03-23T15:03:27;12.80;99.90
10980;DHT22;5543;51.734;8.744;2023-03-23T15:05:58;12.60;99.90
10980;DHT22;5543;51.734;8.744;2023-03-23T15:08:29;12.50;99.90
10980;DHT22;5543;51.734;8.744;2023-03-23T15:11:06;12.40;99.90
10980;DHT22;5543;51.734;8.744;2023-03-23T15:13:35;12.20;99.90
10980;DHT22;5543;51.734;8.744;2023-03-23T15:16:12;12.00;99.90
10980;DHT22;5543;51.734;8.744;2023-03-23T15:18:49;12.00;99.90
10980;DHT22;5543;51.734;8.744;2023-03-23T15:21:24;12.00;99.90
10980;DHT22;5543;51.734;8.744;2023-03-23T15:23:52;12.20;99.90
10980;DHT22;5543;51.734;8.744;2023-03-23T15:26:27;12.20;99.90
10980;DHT22;5543;51.734;8.744;2023-03-23T15:29:16;12.20;99.90
10980;DHT22;5543;51.734;8.744;2023-03-23T15:31:45;12.30;99.90
10980;DHT22;5543;51.734;8.744;2023-03-23T15:34:29;12.30;99.90
10980;DHT22;5543;51.734;8.744;2023-03-23T15:36:59;12.50;99.90
10980;DHT22;5543;51.734;8.744;2023-03-23T15:39:27;12.40;99.90
10980;DHT22;5543;51.734;8.744;2023-03-23T15:41:57;12.40;99.90
10980;DHT22;5543;51.734;8.744;2023-03-23T15:44:30;12.40;99.90
10980;DHT22;5543;51.734;8.744;2023-03-23T15:47:14;12.50;99.90
10980;DHT22;5543;51.734;8.744;2023-03-23T15:49:44;12.60;99.90
10980;DHT22;5543;51.734;8.744;2023-03-23T15:52:13;12.60;99.90
10980;DHT22;5543;51.734;8.744;2023-03-23T15:54:46;12.60;99.90
10980;DHT22;5543;51.734;8.744;2023-03-23T15:57:14;12.50;99.90
10980;DHT22;5543;51.734;8.744;2023-03-23T15:59:43;12.50;99.90
10980;DHT22;5543;51.734;8.744;2023-03-23T16:02:18;12.50;99.90
10980;DHT22;5543;51.734;8.744;2023-03-23T16:04:51;12.70;99.90
10980;DHT22;5543;51.734;8.744;2023-03-23T16:07:22;12.80;99.90
10980;DHT22;5543;51.734;8.744;2023-03-23T16:09:50;12.60;99.90